Knoxville, TN (37901)

6:54 PM EDT on June 26, 2017 (GMT -0400)
Island Home | | Change Station

Elev 928 ft 35.95 °N, 83.88 °W | Updated 8 seconds ago

Partly Cloudy
Partly Cloudy
76.5 °F
Feels Like 78 °F
N
0.0
Wind Variable Wind from SSE

Today
High -- | Low -- °F
--% Chance of Precip.
Yesterday
High -- | Low -- °F
Precip. -- in
Pressure 30.07 in
Visibility 10.0 miles
Clouds Few 3500 ft
Few 13000 ft
Scattered Clouds 25000 ft
Heat Index 78 °F
Dew Point 60 °F
Humidity 58%
Rainfall 0.00 in
Snow Depth Not available.
6:20 AM 8:56 PM
Waxing Crescent, 11% visible
METAR KTYS 262153Z 24008KT 10SM FEW035 FEW130 SCT250 25/13 A3009 RMK AO2 SLP181 T02500128
Pressure 30.07 in
Visibility 10.0 miles
Clouds Few 3500 ft
Few 13000 ft
Scattered Clouds 25000 ft
Heat Index 78 °F
Dew Point 60 °F
Humidity 58%
Rainfall 0.00 in
Snow Depth Not available.
6:20 AM 8:56 PM
Waxing Crescent, 11% visible
METAR KTYS 262153Z 24008KT 10SM FEW035 FEW130 SCT250 25/13 A3009 RMK AO2 SLP181 T02500128

Get Severe Weather Alerts

Thanks for signing up!

Be on the lookout for a verification email in your inbox.

You'll start receiving the daily forecast at 6 AM.

×

10-Day Weather Forecast

Almanac

Astronomy

Jun. 26, 2017 Rise Set
Actual Time
Civil Twilight
Nautical Twilight
Astronomical Twilight
Moon
Length of Visible Light
Length of Day
Tomorrow will be .
, % of the Moon is Illuminated

Today's Extremes

State Highs State Lows

Community

WunderPhotos

Category 6

Welcome to Category 6. This is the collective home for Weather Underground's featured writeups by Dr. Jeff Masters (right), Bob Henson (left), Chris Burt, and other regular contributors.

Nearby

Air Quality

  Air Quality AQ Index Pollutant
Not available.

Snow Depth

Station Depth Elevation

Earthquake Activity

City Distance Mag. Time & Date
Minimum magnitude displayed is 2.5.

Coastal Water Temperatures

Place Temperature

Stations

Nearby Weather Stations

Station Location Temp. Windchill Dew Point Humidity Wind Precip. Elev Updated Type
                   

Watches & Warnings

There are currently no watches in effect.